Date,TemperatureHighF,TemperatureAvgF,TemperatureLowF,DewpointHighF,DewpointAvgF,DewpointLowF,HumidityHigh,HumidityAvg,HumidityLow,PressureMaxIn,PressureMinIn,WindSpeedMaxMPH,WindSpeedAvgMPH,GustSpeedMaxMPH,PrecipitationSumIn
2013-1-1,33.5,27.5,17.4,29.7,22.0,11.7,86,80,72,30.23,30.08,13,3,15,0.00
2013-1-2,24.7,16.8,8.2,11.6,7.0,2.0,81,66,38,30.33,30.22,9,2,10,0.00
2013-1-3,32.8,22.4,9.5,24.6,15.4,4.5,82,74,62,30.37,30.27,26,5,26,0.00
2013-1-4,31.4,25.7,20.2,20.0,17.1,13.9,82,70,59,30.41,30.35,24,7,24,0.00
2013-1-5,41.0,28.6,16.4,30.1,22.0,11.9,86,77,54,30.39,30.16,21,3,21,0.00
2013-1-6,36.9,32.1,27.2,30.7,25.3,19.7,80,76,70,30.41,30.05,26,7,27,0.00
2013-1-7,38.2,28.3,16.9,25.8,20.6,11.8,85,73,59,30.49,30.27,17,4,17,0.00
2013-1-8,44.6,32.5,21.5,29.1,24.5,17.4,85,73,52,30.32,30.23,11,3,12,0.00
2013-1-9,47.9,40.5,30.5,38.0,32.9,26.5,86,75,56,30.54,30.21,15,5,16,0.07
2013-1-10,45.4,36.6,27.6,40.8,30.6,24.0,87,80,55,30.55,30.05,21,4,21,0.05
2013-1-11,59.2,53.2,45.5,52.3,47.2,40.9,89,80,66,30.06,29.84,23,7,23,0.88
2013-1-12,64.1,54.4,42.2,54.0,48.5,38.3,89,81,64,29.99,29.71,17,4,17,1.47
2013-1-13,56.3,37.7,23.6,53.1,33.7,17.7,89,85,78,30.25,29.65,33,4,33,1.17
2013-1-14,24.7,22.1,18.3,18.0,15.5,12.3,80,75,69,30.51,30.25,18,4,19,0.00
2013-1-15,33.1,26.9,20.8,21.9,18.5,15.4,81,71,56,30.46,30.15,20,4,20,0.00
2013-1-16,36.4,30.4,25.1,23.1,21.3,18.6,83,70,49,30.15,30.01,18,4,18,0.00
2013-1-17,40.4,32.7,23.0,29.6,22.9,15.2,80,68,52,30.47,30.13,25,4,25,0.00
2013-1-18,41.1,31.1,19.9,23.5,17.8,13.7,83,60,33,30.54,30.18,26,6,26,0.00
2013-1-19,52.7,45.7,39.0,35.2,28.5,21.5,66,51,42,30.19,29.89,38,11,38,0.00
2013-1-20,46.0,28.8,23.0,34.9,14.6,8.6,67,55,43,30.31,29.93,34,9,36,0.00
2013-1-21,23.9,17.4,10.7,12.5,5.9,-2.8,77,60,50,30.35,30.20,30,9,30,0.00
2013-1-22,18.2,12.3,6.3,1.5,-1.4,-3.1,66,54,41,30.48,30.35,21,8,23,0.00
2013-1-23,24.1,19.5,12.8,12.1,4.6,-0.5,62,52,41,30.43,30.16,22,4,22,0.00
2013-1-24,24.4,20.7,14.8,11.2,6.1,-1.2,74,54,34,30.67,30.23,24,5,24,0.00
2013-1-25,29.2,24.1,20.5,18.5,13.0,3.6,78,63,45,30.45,30.09,18,4,18,0.06
2013-1-26,31.2,23.3,16.1,17.6,14.5,10.7,81,69,53,30.49,30.17,12,3,12,0.00
2013-1-27,38.4,29.6,20.2,34.6,22.0,13.9,86,73,61,30.48,30.10,18,5,19,0.18
2013-1-28,53.1,48.9,38.4,49.6,45.2,34.6,88,87,84,30.14,30.00,26,6,26,0.15
2013-1-29,64.8,58.7,53.1,56.6,53.3,49.6,89,83,74,30.00,29.41,33,8,33,0.00
2013-1-30,65.2,47.3,29.4,57.7,41.8,22.4,88,81,70,29.65,29.26,41,10,41,0.27
2013-1-31,31.1,24.2,11.9,22.8,15.5,1.0,78,69,60,30.19,29.65,35,13,35,0.00
2013-2-1,18.8,13.2,7.4,8.9,3.1,-1.6,73,64,54,30.48,30.19,31,8,33,0.00
2013-2-2,29.8,24.4,18.6,23.3,17.5,8.6,81,75,64,30.35,30.05,21,6,22,0.02
2013-2-3,26.5,20.1,14.0,19.0,12.9,6.9,78,73,67,30.16,30.03,25,5,27,0.00
2013-2-4,38.5,29.9,21.6,30.8,21.8,13.4,80,72,61,30.16,29.84,19,4,20,0.00
2013-2-5,37.4,32.1,24.9,30.7,24.7,18.8,81,74,66,30.08,29.87,17,4,21,0.00
2013-2-6,37.9,32.8,29.9,27.8,23.8,21.3,79,70,55,30.31,30.08,18,4,20,0.00
2013-2-7,54.4,40.9,29.0,41.5,30.6,23.8,86,69,39,30.23,29.83,16,3,17,0.12
2013-2-8,42.4,34.8,31.4,38.3,28.1,22.6,86,76,64,30.40,29.85,28,8,31,0.00
2013-2-9,41.0,31.7,21.9,24.7,21.7,17.8,85,67,48,30.46,30.21,16,4,16,0.00
2013-2-10,51.7,43.4,33.9,46.5,33.8,20.5,83,69,56,30.21,29.72,26,6,28,0.04
2013-2-11,52.1,41.6,32.6,46.8,30.4,23.5,83,65,55,30.08,29.72,38,12,38,0.00
2013-2-12,44.7,34.5,26.6,29.4,25.4,20.8,82,70,49,30.18,29.98,15,4,15,0.00
2013-2-13,45.9,35.1,28.9,27.8,24.7,22.4,83,67,42,29.98,29.81,16,3,16,0.00
2013-2-14,51.4,40.3,32.7,36.2,31.4,26.0,84,71,52,30.03,29.83,29,7,29,0.00
2013-2-15,38.2,31.6,22.7,29.5,24.0,16.8,83,74,53,30.22,30.01,26,4,26,0.00
2013-2-16,26.4,23.7,21.6,19.6,13.1,7.4,81,64,48,30.20,30.15,28,6,28,0.00
2013-2-17,32.8,23.5,13.0,13.6,7.8,0.9,77,54,26,30.30,30.19,12,3,13,0.00
2013-2-18,60.4,43.1,27.8,40.9,27.0,11.2,81,54,35,30.20,29.60,39,9,42,0.09
2013-2-19,46.9,28.5,23.5,41.9,19.5,10.9,83,69,57,30.19,29.59,40,14,40,0.13
2013-2-20,27.9,21.6,13.7,14.9,10.3,4.4,72,61,50,30.39,30.19,28,7,28,0.00
2013-2-21,33.7,26.7,18.4,25.2,18.3,12.2,82,71,58,30.42,30.06,26,6,33,0.20
2013-2-22,37.5,34.3,30.1,32.2,29.6,25.3,88,83,76,30.07,29.89,23,4,23,0.08
2013-2-23,37.9,30.8,25.1,25.8,21.7,19.2,79,69,54,30.04,29.97,17,6,18,0.00
2013-2-24,40.2,30.8,21.1,26.0,22.0,16.7,84,71,53,30.19,30.02,14,3,14,0.00
2013-2-25,45.8,35.1,23.6,27.0,24.0,19.5,85,66,44,30.22,29.91,20,6,22,0.00
2013-2-26,42.3,38.1,33.8,39.0,32.5,25.4,88,81,62,29.92,29.41,30,6,30,0.87
2013-2-27,42.2,36.3,33.3,38.1,31.5,27.7,87,82,77,29.73,29.50,29,9,31,0.01
2013-2-28,39.2,35.3,33.2,32.6,30.1,28.1,85,81,74,30.03,29.72,23,7,23,0.01
2013-3-1,35.2,33.3,31.8,30.3,27.4,24.3,84,79,72,30.12,30.00,15,4,16,0.00
2013-3-2,32.0,29.9,27.2,24.5,20.9,17.8,78,69,57,30.16,30.10,19,5,19,0.00
2013-3-3,34.2,29.0,23.0,23.0,18.5,16.0,81,65,49,30.17,30.11,17,5,17,0.00
2013-3-4,40.7,31.3,19.9,28.5,20.7,15.6,83,66,40,30.19,30.00,17,4,17,0.00
2013-3-5,38.3,35.6,29.8,32.7,29.6,26.1,87,79,68,30.02,29.69,16,4,16,0.33
2013-3-6,34.6,31.1,28.1,28.7,26.4,23.6,87,83,78,30.32,29.80,18,4,20,0.05
2013-3-7,37.2,33.0,29.6,29.0,26.4,24.0,84,77,61,30.44,30.31,10,2,10,0.00
2013-3-8,44.1,33.7,23.5,26.5,23.6,18.8,85,68,46,30.53,30.41,12,3,12,0.00
2013-3-9,54.2,44.7,31.2,32.8,29.2,24.6,77,56,40,30.40,29.98,19,6,19,0.00
2013-3-10,67.7,58.9,51.2,39.5,34.2,28.7,51,40,24,29.98,29.74,19,8,26,0.00
2013-3-11,60.6,46.9,34.6,48.0,40.0,29.1,86,78,45,29.89,29.61,29,9,29,0.09
2013-3-12,45.4,36.8,33.0,30.7,26.6,22.5,81,67,44,30.07,29.89,28,10,28,0.00
2013-3-13,34.8,30.0,26.2,27.0,20.9,17.4,80,69,57,30.38,30.07,25,8,27,0.01
2013-3-14,44.2,32.4,20.6,29.3,20.2,13.0,83,63,33,30.40,30.20,16,4,16,0.00
2013-3-15,51.3,40.2,28.2,39.0,31.7,24.6,87,73,54,30.20,29.77,11,3,11,0.01
2013-3-16,48.6,41.9,35.1,41.1,35.8,28.1,87,79,71,30.08,29.63,24,6,24,0.01
2013-3-17,39.7,35.1,31.6,28.5,25.5,22.0,78,68,59,30.19,30.00,24,7,24,0.00
2013-3-18,43.7,37.7,33.7,40.0,33.1,28.3,88,84,77,30.00,29.62,25,6,28,0.26
2013-3-19,41.9,33.9,27.0,33.2,17.9,12.3,79,53,31,30.15,29.86,34,12,36,0.00
2013-3-20,34.8,29.2,23.9,18.8,13.2,7.0,67,52,38,30.15,30.07,32,9,32,0.00
2013-3-21,35.6,26.4,18.2,16.2,11.7,7.7,75,55,36,30.11,30.03,19,6,20,0.00
2013-3-22,44.6,31.9,20.1,22.0,16.2,12.2,79,55,29,30.12,30.03,12,2,12,0.00
2013-3-23,50.6,40.0,32.5,23.9,20.8,16.3,67,48,29,30.11,29.94,15,3,16,0.00
2013-3-24,38.0,34.0,30.0,30.6,27.0,22.7,86,76,57,29.94,29.48,33,8,33,0.42
2013-3-25,37.0,32.7,29.4,29.9,26.9,24.9,84,79,68,30.05,29.53,24,8,24,0.13
2013-3-26,40.9,35.2,31.3,28.0,25.8,22.0,81,69,50,30.30,30.05,23,7,23,0.00
2013-3-27,43.2,35.0,26.6,26.6,23.0,17.4,82,63,40,30.37,30.30,18,5,19,0.00
2013-3-28,48.2,37.5,27.5,26.7,23.4,19.3,79,59,38,30.41,30.33,13,3,14,0.00
2013-3-29,57.7,41.7,28.5,32.4,27.5,23.7,83,60,30,30.36,30.24,10,1,10,0.00
2013-3-30,59.4,45.9,30.0,34.6,30.0,25.8,85,58,30,30.27,29.95,16,2,16,0.00
2013-3-31,62.1,50.6,44.2,43.2,38.8,33.2,83,66,37,29.94,29.77,28,6,28,0.01
2013-4-1,48.5,40.8,33.1,36.9,22.1,12.7,67,49,27,30.19,29.85,28,7,28,0.00
2013-4-2,45.9,35.6,26.5,20.1,16.3,9.2,72,48,24,30.33,30.18,22,4,22,0.00
2013-4-3,49.2,37.3,25.1,22.1,16.7,10.6,75,47,24,30.47,30.31,19,3,19,0.00
2013-4-4,58.2,44.0,33.2,25.5,18.2,5.4,65,39,14,30.37,30.02,13,3,13,0.00
2013-4-5,59.7,46.6,34.0,32.8,26.4,19.5,75,48,24,30.17,30.01,22,4,22,0.00
2013-4-6,70.0,54.8,38.7,34.9,29.3,24.4,64,40,24,30.17,29.82,23,7,24,0.00
2013-4-7,73.5,64.8,55.8,44.4,37.6,30.1,55,38,21,29.94,29.78,32,8,34,0.00
2013-4-8,73.5,64.1,55.8,55.8,51.1,39.0,78,63,52,29.96,29.82,25,6,30,0.00
2013-4-9,81.6,67.6,52.6,57.9,53.2,47.8,85,63,35,30.00,29.86,36,6,36,0.00
2013-4-10,82.8,70.0,57.2,63.6,59.2,52.3,87,69,50,29.90,29.74,39,7,39,0.16
2013-4-11,67.9,61.0,50.5,59.4,56.0,46.5,88,84,71,29.78,29.54,25,6,25,0.73
2013-4-12,50.5,43.2,39.5,46.5,33.1,28.4,86,68,54,29.95,29.59,28,10,28,0.02
2013-4-13,51.2,44.9,41.6,35.7,32.8,30.1,74,63,47,30.04,29.95,27,8,27,0.00
2013-4-14,72.0,56.3,38.8,44.3,38.3,33.3,82,55,28,30.05,29.82,23,5,23,0.00
2013-4-15,70.3,62.9,55.2,54.7,49.0,41.8,70,61,47,29.95,29.84,18,6,19,0.00
2013-4-16,63.8,54.5,49.7,52.8,48.5,45.3,87,80,65,30.20,29.87,28,4,35,1.23
2013-4-17,75.3,59.9,48.6,65.1,53.5,44.6,87,80,65,30.21,29.89,25,6,25,0.57
2013-4-18,77.7,66.1,55.7,63.8,59.2,51.4,89,79,55,29.89,29.56,29,6,32,2.90
2013-4-19,55.2,41.7,37.0,51.5,33.7,28.0,88,73,60,30.00,29.56,32,11,32,1.09
2013-4-20,48.9,40.2,33.3,33.3,27.9,22.3,84,63,38,30.44,30.00,18,6,18,0.00
2013-4-21,56.6,43.7,30.7,31.2,26.3,18.9,81,53,31,30.57,30.40,18,5,20,0.00
2013-4-22,69.7,52.2,34.3,40.1,31.6,19.3,83,51,19,30.40,30.11,13,3,13,0.00
2013-4-23,68.7,57.2,46.6,55.5,47.5,39.4,87,72,47,30.12,29.80,20,4,21,0.57
2013-4-24,58.2,44.1,38.1,54.4,37.3,29.9,88,78,52,30.24,29.78,28,6,28,0.70
2013-4-25,55.9,44.6,33.3,38.5,31.7,25.9,87,64,33,30.40,30.23,29,6,29,0.00
2013-4-26,62.3,49.1,33.9,41.8,34.1,29.9,86,60,32,30.47,30.34,14,3,14,0.00
2013-4-27,65.0,53.2,40.5,50.7,41.6,33.6,85,67,35,30.36,30.02,19,4,19,0.06
2013-4-28,61.4,57.1,54.6,56.4,53.3,50.3,89,87,82,30.01,29.84,14,3,14,0.33
2013-4-29,70.5,61.1,55.8,55.5,52.3,49.8,89,74,50,29.99,29.90,16,4,16,0.00
2013-4-30,82.3,66.3,50.0,59.1,52.9,46.2,88,64,41,30.02,29.91,17,4,18,0.00
2013-5-1,84.3,69.3,53.0,57.8,52.7,46.0,87,60,28,30.14,30.02,16,3,16,0.00
2013-5-2,78.3,69.1,59.5,56.3,53.3,48.4,81,59,39,30.16,30.03,17,4,17,0.00
2013-5-3,75.7,66.3,61.0,62.5,56.1,46.3,85,70,47,30.05,29.89,19,4,21,0.14
2013-5-4,69.2,62.6,55.9,51.6,45.4,37.7,85,55,40,30.01,29.92,20,5,20,0.03
2013-5-5,60.8,56.7,54.4,53.2,50.7,48.3,88,81,67,30.02,29.94,22,4,22,0.11
2013-5-6,70.5,59.9,51.3,56.4,51.8,46.6,87,75,56,29.98,29.91,21,4,21,0.02
2013-5-7,75.5,64.5,55.5,56.3,53.7,50.4,88,70,45,30.00,29.93,18,2,19,0.00
2013-5-8,77.8,66.8,56.2,60.0,54.4,49.1,88,67,38,30.02,29.94,11,1,12,0.00
2013-5-9,79.8,64.2,55.0,58.8,54.7,48.1,88,74,35,30.00,29.89,29,2,29,0.71
2013-5-10,70.5,61.3,50.0,61.2,56.3,44.1,90,84,67,29.92,29.80,18,3,18,0.08
2013-5-11,63.6,52.1,46.4,52.9,43.2,29.9,86,73,37,30.05,29.88,28,5,29,0.00
2013-5-12,58.2,48.0,39.1,40.0,32.0,23.3,84,57,29,30.15,30.05,24,5,25,0.00
2013-5-13,64.8,51.2,36.6,41.1,32.1,19.8,86,54,20,30.23,30.12,21,3,21,0.00
2013-5-14,85.3,66.9,49.0,60.8,48.2,34.7,75,53,34,30.13,29.80,26,5,26,0.00
2013-5-15,88.7,76.9,65.8,63.9,57.4,53.0,80,52,35,29.86,29.78,25,7,27,0.08
2013-5-16,82.0,72.7,64.8,64.3,61.5,51.9,88,70,37,29.95,29.81,17,3,17,0.01
2013-5-17,81.8,69.2,63.8,64.2,61.5,58.0,88,78,47,30.03,29.95,28,2,31,0.31
2013-5-18,78.4,68.7,63.1,65.9,62.5,59.8,90,81,58,30.06,29.94,12,2,13,0.01
2013-5-19,85.5,73.3,62.2,68.3,63.4,58.6,89,73,46,29.97,29.82,14,2,14,0.00
2013-5-20,84.2,77.2,71.1,69.2,66.7,64.3,87,71,53,29.92,29.79,21,4,22,0.00
2013-5-21,84.6,73.6,63.5,66.3,62.3,59.6,88,69,45,29.87,29.73,42,5,42,0.21
2013-5-22,75.8,68.2,62.2,63.8,61.3,58.3,88,79,60,29.78,29.69,26,4,32,0.36
2013-5-23,68.2,59.0,49.9,58.9,52.8,42.3,89,80,67,30.17,29.78,24,5,25,0.06
2013-5-24,67.3,54.0,44.8,46.9,40.7,31.3,82,64,28,30.38,30.17,16,2,16,0.00
2013-5-25,63.7,54.7,44.6,49.3,43.6,36.2,83,68,37,30.40,30.23,8,1,8,0.01
2013-5-26,66.3,59.1,52.3,54.7,47.8,39.8,81,67,46,30.31,30.17,11,2,11,0.04
2013-5-27,80.3,65.7,56.6,65.9,58.1,52.5,88,78,55,30.19,29.87,30,5,30,0.76
2013-5-28,81.8,72.4,62.4,66.6,63.2,59.1,89,74,56,29.96,29.86,26,5,26,0.00
2013-5-29,86.7,77.3,69.1,64.5,60.2,55.7,70,57,38,30.00,29.91,28,5,28,0.00
2013-5-30,86.4,77.9,69.9,69.5,64.0,61.5,75,63,48,30.04,29.91,27,9,27,0.00
2013-5-31,77.5,72.3,65.5,69.2,65.4,61.1,88,79,66,29.98,29.84,25,4,25,0.48
2013-6-1,76.2,70.1,64.6,67.5,63.3,60.5,89,79,67,29.88,29.75,24,5,26,0.68
2013-6-2,71.5,65.2,58.7,62.2,57.7,50.1,86,77,64,29.99,29.79,22,4,22,0.00
2013-6-3,68.9,57.6,47.2,52.4,46.7,41.9,84,68,45,30.10,29.99,11,1,11,0.00
2013-6-4,76.0,62.2,48.8,51.8,46.8,40.1,86,61,29,30.16,30.05,17,3,18,0.00
2013-6-5,81.5,67.4,54.6,62.7,53.5,48.4,82,63,37,30.08,29.85,11,2,11,0.00
2013-6-6,77.7,67.1,60.5,63.6,56.3,50.2,80,69,52,29.87,29.77,10,2,11,0.00
2013-6-7,75.8,66.5,60.3,60.4,57.0,54.3,85,72,51,29.88,29.82,11,1,12,0.00
2013-6-8,77.5,68.1,58.7,63.4,57.4,52.3,82,69,49,30.00,29.87,13,2,13,0.00
2013-6-9,81.1,71.6,63.0,65.0,60.0,53.4,87,69,41,30.02,29.82,16,2,16,0.15
2013-6-10,75.8,69.3,65.0,65.7,62.6,59.1,89,80,62,29.86,29.76,18,4,18,0.50
2013-6-11,85.3,73.2,62.8,67.0,62.4,58.9,88,71,46,29.96,29.85,15,3,15,0.01
2013-6-12,89.3,79.2,69.2,74.7,69.6,64.8,89,74,56,29.91,29.62,19,4,20,0.00
2013-6-13,83.5,72.8,63.9,69.7,60.5,50.8,88,67,40,29.97,29.58,28,5,28,0.21
2013-6-14,80.0,67.6,57.3,61.5,56.2,51.8,84,68,43,30.07,29.94,13,1,14,0.00
2013-6-15,84.5,70.8,59.9,67.2,59.7,55.7,87,70,43,30.10,29.92,17,2,18,0.01
2013-6-16,79.5,71.8,66.5,67.8,64.2,60.8,87,77,65,29.99,29.90,29,4,29,0.06
2013-6-17,87.8,74.9,65.7,69.5,65.0,57.4,89,73,39,29.95,29.85,17,1,17,0.00
2013-6-18,85.2,74.0,64.8,66.0,62.1,58.3,85,67,44,29.98,29.86,17,2,17,0.00
2013-6-19,81.1,71.1,61.6,64.3,58.5,55.1,81,65,44,30.09,29.97,14,2,15,0.00
2013-6-20,86.8,73.8,62.0,64.5,59.0,52.9,84,62,32,30.17,30.09,11,2,11,0.00
2013-6-21,88.8,75.8,62.9,68.9,60.9,54.3,84,62,33,30.18,30.01,18,2,26,0.00
2013-6-22,90.5,76.3,69.6,71.5,67.0,64.9,88,74,49,30.11,30.02,22,3,22,0.30
2013-6-23,86.8,72.2,66.1,70.0,65.7,60.6,89,81,48,30.10,30.02,38,3,44,0.81
2013-6-24,86.9,76.1,68.9,70.3,67.3,64.9,90,76,50,30.11,29.98,17,3,17,0.00
2013-6-25,89.9,78.7,69.5,73.7,68.9,64.0,86,73,51,30.00,29.84,15,4,40,0.09
2013-6-26,83.7,73.6,67.1,73.5,66.7,63.4,89,80,63,29.89,29.72,21,3,21,0.02
2013-6-27,87.3,77.6,69.5,71.0,67.4,65.4,88,72,50,29.78,29.68,23,4,23,0.00
2013-6-28,85.0,74.0,65.7,69.0,63.0,58.0,87,70,43,29.69,29.58,37,5,37,0.44
2013-6-29,73.2,66.6,63.0,65.1,62.1,59.4,89,86,71,29.67,29.57,12,1,14,0.11
2013-6-30,75.3,68.4,64.6,66.0,62.3,60.4,88,81,69,29.87,29.66,21,2,21,0.08
2013-7-1,73.7,67.8,64.8,66.1,61.3,59.1,87,80,69,29.95,29.84,19,3,20,0.07
2013-7-2,76.0,66.4,61.8,69.8,61.7,58.1,89,85,75,30.00,29.93,24,2,24,1.44
2013-7-3,79.8,68.6,61.4,65.3,61.4,58.1,90,79,54,30.09,29.99,18,2,18,0.01
2013-7-4,76.2,69.4,62.0,67.4,63.3,58.4,89,81,64,30.13,30.05,9,1,9,0.00
2013-7-5,81.0,72.5,65.0,67.7,64.7,61.6,89,77,58,30.12,30.03,10,1,10,0.00
2013-7-6,72.4,70.6,67.4,67.2,65.4,62.4,87,84,74,30.09,30.02,13,2,16,0.13
2013-7-7,84.7,72.9,64.4,70.3,64.9,60.8,89,77,51,30.09,30.00,13,2,13,0.00
2013-7-8,85.7,77.5,69.2,72.8,68.5,64.7,87,75,59,30.09,29.99,21,4,21,0.00
2013-7-9,89.2,81.0,76.6,76.0,71.2,68.4,84,72,56,30.04,29.93,17,4,21,0.01
2013-7-10,85.5,78.3,69.0,74.9,70.2,62.3,86,77,62,29.94,29.81,30,4,30,0.08
2013-7-11,80.1,71.2,63.3,62.3,57.1,52.5,78,62,44,30.04,29.94,18,2,20,0.00
2013-7-12,81.8,69.8,58.8,61.4,57.0,53.2,85,66,40,30.11,30.03,16,2,17,0.00
2013-7-13,84.4,72.6,62.5,67.5,61.7,57.6,85,70,49,30.12,30.05,17,3,17,0.00
2013-7-14,89.0,78.2,67.1,72.0,66.8,62.3,86,69,47,30.18,30.11,14,2,14,0.00
2013-7-15,90.5,80.6,72.8,72.3,69.4,66.7,87,70,48,30.27,30.17,12,2,12,0.00
2013-7-16,90.2,80.0,71.2,74.6,70.2,67.1,88,73,53,30.32,30.24,7,1,11,0.00
2013-7-17,92.5,81.9,73.3,73.2,70.2,66.7,88,70,44,30.32,30.17,10,1,12,0.00
2013-7-18,93.0,81.7,72.7,73.9,70.6,66.2,88,71,44,30.19,29.99,11,1,11,0.00
2013-7-19,91.8,82.9,74.9,74.4,71.2,68.3,86,69,48,30.01,29.84,21,4,21,0.00
2013-7-20,81.6,75.4,69.9,71.2,68.3,64.8,86,79,69,29.91,29.81,16,4,17,0.04
2013-7-21,84.8,75.5,67.4,71.6,67.3,63.4,88,76,56,29.96,29.85,10,1,10,0.01
2013-7-22,80.8,73.9,69.4,72.5,67.8,65.2,88,82,66,29.88,29.76,14,1,14,0.34
2013-7-23,89.0,76.6,67.4,73.1,66.4,56.5,89,72,47,29.88,29.74,23,4,27,0.00
2013-7-24,76.7,65.9,57.6,57.2,53.9,50.7,81,66,45,30.02,29.87,14,2,15,0.00
2013-7-25,80.0,66.6,55.3,58.2,53.6,49.8,87,66,38,30.10,30.01,15,1,15,0.00
2013-7-26,80.8,69.6,57.4,61.1,56.7,53.1,87,66,41,30.09,29.93,15,3,15,0.00
2013-7-27,79.3,69.9,61.1,63.6,58.0,49.7,88,68,43,29.93,29.84,23,5,23,0.08
2013-7-28,73.5,63.4,51.1,55.0,49.1,46.3,85,62,41,30.04,29.92,22,5,22,0.00
2013-7-29,79.8,66.6,55.6,56.9,53.0,49.3,87,64,36,30.18,30.04,13,2,14,0.00
2013-7-30,74.0,66.7,57.4,64.2,58.8,52.9,86,76,57,30.20,30.09,8,1,8,0.01
2013-7-31,76.1,69.7,65.5,68.4,64.5,60.3,89,84,75,30.10,29.93,11,2,11,0.08
2013-8-1,83.3,72.5,64.7,66.6,59.5,48.6,89,67,31,30.00,29.93,28,4,30,0.00
2013-8-2,85.3,70.6,57.7,64.3,59.2,53.2,86,69,43,29.99,29.92,25,4,25,0.00
2013-8-3,83.3,72.8,65.9,67.1,62.9,54.6,89,73,44,30.07,29.93,11,1,12,0.49
2013-8-4,80.0,68.0,58.3,58.5,53.9,46.4,81,63,35,30.16,30.06,11,1,13,0.00
2013-8-5,81.0,69.0,59.2,61.1,56.9,53.1,86,67,41,30.11,29.93,11,2,14,0.00
2013-8-6,80.6,72.7,67.3,69.9,64.7,59.5,87,76,68,29.95,29.88,10,2,10,0.00
2013-8-7,85.0,76.3,70.7,72.7,69.7,67.1,89,81,62,29.91,29.83,14,2,14,0.01
2013-8-8,86.2,75.5,71.2,72.9,70.2,67.8,89,84,61,29.92,29.87,16,1,16,0.12
2013-8-9,83.6,74.1,69.5,69.0,66.0,61.7,89,77,49,30.03,29.90,12,1,12,0.62
2013-8-10,86.8,75.0,67.7,67.0,64.4,59.9,87,71,44,30.10,30.02,13,1,13,0.00
2013-8-11,84.8,74.0,66.3,66.6,63.6,57.7,88,72,42,30.09,30.03,14,1,14,0.00
2013-8-12,85.5,74.1,66.2,66.8,63.7,59.1,88,72,43,30.07,29.87,13,2,13,0.00
2013-8-13,75.0,69.1,58.9,66.1,57.3,46.2,85,67,46,30.10,29.85,23,2,23,0.00
2013-8-14,72.8,61.1,52.4,51.0,47.6,43.6,81,63,39,30.20,30.10,13,1,15,0.00
2013-8-15,55.7,52.9,51.2,49.6,48.2,47.1,86,84,79,30.18,30.15,7,0,7,0.00
2013-8-18,85.2,76.5,52.1,62.9,58.6,48.0,86,56,33,30.18,30.08,12,2,12,0.00
2013-8-19,85.8,71.9,60.0,64.1,60.0,56.1,88,68,43,30.13,30.04,9,1,9,0.00
2013-8-20,87.8,74.8,62.9,66.2,61.8,57.8,88,67,37,30.15,30.05,13,1,13,0.00
2013-8-21,89.0,76.3,66.7,68.9,65.2,61.6,88,70,41,30.13,30.02,15,2,15,0.00
2013-8-22,86.2,75.0,68.1,69.5,65.6,63.8,87,73,53,30.08,29.99,15,2,17,0.00
2013-8-23,84.5,73.6,66.6,67.5,63.8,58.3,87,73,46,30.13,30.05,14,1,14,0.00
2013-8-24,89.7,72.5,59.5,61.5,54.9,41.6,86,59,20,30.26,30.13,11,1,11,0.00
2013-8-25,90.0,73.4,59.7,62.5,56.8,49.2,87,61,26,30.30,30.19,11,1,11,0.00
2013-8-26,89.8,75.8,63.6,71.8,64.5,58.1,85,70,43,30.23,30.05,17,2,17,0.00
2013-8-27,92.8,80.3,71.7,73.3,69.4,67.1,87,71,45,30.08,29.93,16,4,16,0.00
2013-8-28,93.3,82.7,75.6,74.0,69.9,65.7,80,66,49,29.96,29.87,25,5,25,0.00
2013-8-29,90.0,78.4,70.9,70.3,67.1,62.0,89,70,43,30.03,29.95,11,1,11,0.00
2013-8-30,94.0,79.8,67.0,71.3,66.9,63.0,88,67,41,29.97,29.79,14,2,14,0.00
2013-8-31,95.0,77.2,70.1,73.1,68.3,65.2,89,76,45,29.84,29.73,32,2,32,0.64
2013-9-1,84.2,74.7,67.9,72.0,67.9,64.2,89,80,63,29.80,29.74,15,2,16,0.00
2013-9-2,84.8,73.9,68.2,67.8,64.1,57.6,89,74,45,29.92,29.76,19,2,19,0.00
2013-9-3,76.0,65.4,54.6,58.5,53.3,49.5,85,66,43,30.07,29.91,15,1,15,0.00
2013-9-4,83.0,67.5,54.4,59.8,55.3,50.6,88,68,35,30.15,30.05,11,2,13,0.00
2013-9-5,85.7,71.5,61.3,64.2,59.7,56.8,86,68,42,30.19,30.12,8,1,8,0.00
2013-9-6,83.8,70.3,58.9,63.2,55.0,49.1,77,60,38,30.22,30.07,9,2,10,0.00
2013-9-7,88.3,73.5,60.0,66.1,60.9,55.5,86,67,41,30.08,29.93,17,2,17,0.03
2013-9-8,88.8,77.0,68.9,70.5,66.6,61.4,89,72,41,29.97,29.90,12,1,12,0.02
2013-9-9,93.3,79.7,67.5,71.1,67.3,63.4,88,68,43,29.98,29.89,20,3,20,0.00
2013-9-10,97.2,83.6,75.5,72.8,68.0,58.3,84,62,29,30.08,29.96,22,3,22,0.00
2013-9-11,95.8,82.0,73.0,71.1,65.8,57.4,85,61,32,30.10,29.98,20,3,21,0.00
2013-9-12,82.7,74.3,65.1,69.1,62.9,46.6,88,69,36,29.99,29.85,25,3,26,0.15
2013-9-13,68.7,61.2,53.9,53.4,45.5,39.1,77,58,37,30.11,29.97,18,2,18,0.00
2013-9-14,72.0,57.2,44.8,45.5,41.0,31.9,85,59,25,30.21,30.10,10,1,10,0.00
2013-9-15,78.5,61.1,46.7,59.6,47.5,41.6,85,65,29,30.14,30.01,14,2,16,0.04
2013-9-16,67.9,61.7,54.2,56.3,53.1,48.8,84,74,59,30.29,30.09,13,2,17,0.00
2013-9-17,76.8,62.1,50.0,54.5,49.7,45.6,86,66,36,30.33,30.15,16,2,16,0.00
2013-9-18,83.0,70.0,59.6,64.3,57.9,51.7,79,67,46,30.15,30.01,13,2,13,0.00
2013-9-19,81.3,72.6,66.6,69.8,66.1,62.8,89,80,65,30.06,29.90,19,3,19,1.20
2013-9-20,79.2,72.5,66.5,69.0,66.6,62.8,88,82,68,29.93,29.79,15,3,17,0.28
2013-9-21,71.9,62.3,55.2,63.0,51.3,43.3,88,70,37,29.91,29.76,18,3,19,0.18
2013-9-22,70.2,57.1,48.0,51.2,46.9,42.9,87,71,41,30.03,29.91,11,1,12,0.00
2013-9-23,72.2,57.6,46.2,50.0,46.1,42.1,87,68,37,30.12,30.02,13,2,13,0.00
2013-9-24,76.5,60.6,47.1,59.7,50.7,42.9,87,71,46,30.09,29.90,16,2,16,0.00
2013-9-25,79.1,64.6,55.1,58.9,53.1,48.8,81,68,43,29.94,29.86,11,1,13,0.00
2013-9-26,79.0,62.9,50.7,58.5,52.0,46.7,87,70,41,30.08,29.94,14,1,14,0.00
2013-9-27,81.2,64.1,50.6,56.8,50.7,43.5,87,66,29,30.18,30.07,10,1,10,0.00
2013-9-28,82.8,66.0,51.2,57.9,53.3,47.2,87,66,36,30.16,30.02,15,2,15,0.00
2013-9-29,67.3,63.9,61.7,61.4,58.7,55.6,89,83,68,30.03,29.97,7,2,11,0.84
2013-9-30,75.0,65.7,60.5,63.0,59.2,57.2,90,80,59,30.01,29.92,15,2,15,0.01
2013-10-1,75.5,66.4,60.6,63.6,60.5,57.1,89,82,64,30.06,29.98,15,2,15,0.00
2013-10-2,77.0,68.3,61.5,67.6,63.3,57.9,89,84,68,30.10,30.02,8,1,8,0.00
2013-10-3,82.0,72.1,67.0,66.8,64.5,62.7,89,78,56,30.04,29.94,18,2,18,0.02
2013-10-4,81.9,72.4,66.9,69.4,65.9,63.2,88,80,64,30.05,29.98,13,2,13,0.23
2013-10-5,73.3,70.8,66.3,69.2,66.7,62.6,89,87,82,30.01,29.86,17,2,17,1.29
2013-10-6,66.7,60.5,48.9,63.4,55.1,40.3,89,82,61,29.89,29.73,24,3,24,1.15
2013-10-7,61.5,52.6,46.7,49.6,44.5,40.1,86,74,54,30.17,29.82,23,4,23,0.02
2013-10-8,71.8,55.9,45.6,52.0,46.5,42.2,89,73,40,30.28,30.17,12,1,14,0.00
2013-10-9,73.0,57.1,45.8,55.5,47.6,41.9,88,73,42,30.25,30.15,12,2,12,0.00
2013-10-10,74.3,58.5,47.4,54.6,49.1,43.6,88,73,40,30.21,30.09,9,1,9,0.00
2013-10-11,75.8,59.2,46.7,55.3,48.2,41.8,89,71,30,30.12,30.02,8,0,8,0.00
2013-10-12,77.8,61.9,48.9,61.1,53.5,45.2,89,76,47,30.12,30.03,14,1,14,0.00
2013-10-13,71.7,62.1,53.1,61.0,45.9,34.3,86,58,28,30.36,30.12,13,2,15,0.00
2013-10-14,70.0,55.0,44.1,51.4,44.2,39.4,85,69,35,30.37,30.19,10,1,11,0.00
2013-10-15,65.8,59.0,50.0,60.8,54.0,44.4,88,83,80,30.19,29.91,17,2,17,0.08
2013-10-16,64.3,56.9,46.3,60.7,47.5,40.8,88,72,51,29.99,29.88,18,4,18,0.00
2013-10-17,53.9,47.3,41.6,47.5,42.0,37.7,88,82,66,29.98,29.91,22,2,24,0.07
2013-10-18,66.5,51.2,40.8,48.3,41.4,37.2,89,72,41,30.02,29.93,24,3,24,0.00
2013-10-19,53.2,46.2,42.1,42.1,38.6,32.8,87,76,47,29.99,29.89,19,3,22,0.30
2013-10-20,64.7,50.7,39.5,43.8,38.7,34.6,85,65,41,30.01,29.93,25,4,25,0.00
2013-10-21,62.0,50.9,41.4,46.2,41.3,27.9,80,70,54,30.03,29.91,17,4,22,0.00
2013-10-22,51.7,40.8,31.2,38.8,31.1,25.8,85,70,39,30.08,29.87,13,2,13,0.03
2013-10-23,48.9,40.8,34.5,36.1,32.3,26.5,87,73,44,30.10,29.84,23,5,23,0.28
2013-10-24,40.8,38.9,35.2,36.4,32.0,27.3,86,76,66,30.34,30.08,15,4,17,0.14
2013-10-25,49.7,38.4,30.6,29.4,26.1,21.0,80,63,36,30.50,30.30,16,3,17,0.00
2013-10-26,56.4,43.1,33.0,39.4,31.0,25.8,78,63,49,30.30,29.97,22,5,26,0.00
2013-10-27,56.4,42.0,30.9,35.4,31.2,26.9,87,69,36,30.15,30.07,16,1,16,0.00
2013-10-28,60.4,43.4,31.0,39.4,32.1,27.3,87,68,30,30.33,30.11,8,0,9,0.00
2013-10-29,56.3,46.6,36.5,45.6,39.2,32.4,87,76,59,30.38,30.22,8,2,8,0.02
2013-10-30,63.7,56.9,49.7,60.4,53.4,45.4,89,88,85,30.21,29.96,22,2,22,0.15
2013-10-31,64.5,61.6,55.8,61.2,58.0,51.0,89,88,84,29.96,29.29,39,5,39,1.81
2013-11-1,57.4,51.8,46.9,51.0,43.8,39.5,86,75,60,29.78,29.42,25,6,25,0.02
2013-11-2,54.7,47.6,43.4,41.7,38.5,33.9,84,71,50,30.15,29.78,20,5,23,0.00
2013-11-3,54.1,43.5,34.4,39.0,34.5,29.5,86,72,45,30.35,30.15,13,2,13,0.00
2013-11-4,54.2,48.7,39.5,41.5,37.6,34.5,83,66,54,30.37,30.28,22,4,22,0.00
2013-11-5,57.1,52.8,49.1,46.0,42.9,40.0,83,69,59,30.38,30.15,15,2,15,0.02
2013-11-6,59.3,53.7,42.4,52.5,45.6,37.3,86,75,60,30.15,29.93,28,6,28,0.21
2013-11-7,48.7,41.5,34.0,37.3,29.9,22.5,82,65,37,30.33,30.12,26,6,26,0.00
2013-11-8,51.4,39.9,30.0,33.8,28.6,25.3,85,66,38,30.41,30.20,13,2,13,0.00
2013-11-9,61.4,50.8,41.6,39.6,34.2,26.6,65,53,43,30.20,30.00,29,7,29,0.00
2013-11-10,49.7,42.3,33.0,36.3,31.1,28.0,83,65,49,30.37,30.13,24,5,24,0.00
2013-11-11,51.5,41.6,31.6,39.5,32.4,27.3,86,71,50,30.39,30.12,25,4,25,0.01
2013-11-12,36.6,31.3,26.5,27.7,22.4,19.3,83,70,56,30.69,30.39,18,4,18,0.00
2013-11-13,39.6,30.0,20.2,20.0,17.3,13.5,81,61,35,30.69,30.39,16,4,19,0.00
2013-11-14,53.6,40.9,27.6,22.2,18.3,11.7,72,44,19,30.39,30.13,26,6,26,0.00
2013-11-15,53.2,46.6,40.2,35.5,25.5,18.5,72,44,35,30.14,30.06,17,4,17,0.00
2013-11-16,61.1,52.7,43.9,56.2,46.8,35.5,85,80,71,30.08,29.77,26,6,26,0.00
2013-11-17,66.7,59.9,49.5,60.3,52.5,39.3,88,77,51,29.81,29.39,46,10,50,0.08
2013-11-18,50.2,44.7,33.5,40.1,31.9,25.0,75,61,39,30.25,29.81,32,10,32,0.00
2013-11-19,44.1,35.4,28.9,29.2,26.4,22.6,81,70,52,30.39,30.25,15,3,15,0.00
2013-11-20,48.0,38.4,27.1,34.6,28.3,23.2,86,68,51,30.36,30.21,19,4,20,0.00
2013-11-21,50.5,47.9,44.1,46.5,40.7,31.8,86,77,53,30.29,30.19,13,2,14,0.26
2013-11-22,51.0,44.9,34.4,47.3,39.7,27.9,87,82,73,30.45,30.18,25,4,25,0.05
2013-11-23,34.4,28.5,21.7,27.9,18.9,10.0,81,67,50,30.67,30.44,28,7,33,0.00
2013-11-24,28.6,21.0,16.3,12.9,9.6,7.2,70,62,42,30.77,30.65,23,5,23,0.00
2013-11-25,34.9,25.9,19.1,20.9,14.5,13.0,79,63,43,30.57,30.20,16,5,16,0.00
2013-11-26,37.6,34.4,31.2,27.4,24.6,20.9,76,67,57,30.24,30.00,31,4,31,0.00
2013-11-27,31.2,24.7,19.0,24.5,15.1,11.0,76,67,55,30.35,30.05,23,7,24,0.00
2013-11-28,37.1,26.5,18.8,18.2,14.6,10.9,79,62,37,30.50,30.29,24,4,24,0.00
2013-11-29,38.8,27.7,18.2,22.2,18.4,13.1,83,69,47,30.68,30.51,12,2,12,0.00
2013-11-30,52.0,36.6,26.1,27.5,23.3,19.7,81,61,32,30.53,30.17,17,3,18,0.00
2013-12-1,52.4,38.6,28.7,35.8,29.1,23.1,82,70,51,30.17,29.99,15,2,15,0.00
2013-12-2,49.5,41.4,34.3,38.9,34.5,29.0,86,77,61,30.00,29.80,11,2,11,0.01
2013-12-3,49.9,43.8,34.1,46.0,39.8,29.8,88,86,83,29.86,29.78,15,3,15,0.00
2013-12-4,59.9,53.5,42.6,56.0,49.6,37.8,89,87,83,29.83,29.64,22,5,22,0.00
2013-12-5,59.4,39.0,25.6,54.6,32.2,20.8,84,76,70,30.25,29.72,24,7,24,0.15
2013-12-6,28.7,26.2,23.8,22.7,20.9,17.3,84,80,76,30.50,30.23,16,4,16,0.04
2013-12-7,25.7,19.6,12.8,17.2,11.5,7.1,80,71,57,30.69,30.50,15,3,15,0.00
2013-12-8,30.4,25.5,18.2,26.5,19.3,12.5,86,77,68,30.59,30.04,20,5,21,0.00
2013-12-9,30.9,26.8,22.0,27.2,20.0,13.7,86,75,64,30.30,30.03,23,8,23,0.00
2013-12-10,28.2,21.5,13.1,14.8,11.8,5.8,79,66,50,30.40,30.21,28,6,29,0.00
2013-12-11,31.1,20.2,12.4,20.7,13.1,4.2,83,74,63,30.61,30.37,22,4,22,0.00
2013-12-12,23.3,14.8,4.9,5.7,0.3,-2.7,75,54,34,30.63,30.39,19,4,19,0.00
2013-12-13,36.0,26.2,15.3,29.3,15.8,4.7,86,65,51,30.39,30.16,29,3,29,0.06
2013-12-14,36.2,33.2,28.2,33.0,29.4,23.6,88,86,82,30.17,29.77,27,3,27,0.21
2013-12-15,29.4,24.3,19.5,24.7,17.2,11.4,84,74,66,30.17,29.98,26,8,27,0.00
2013-12-16,29.4,24.8,20.2,25.7,19.6,15.0,86,81,77,30.17,30.04,11,2,11,0.05
2013-12-17,31.0,27.1,22.6,25.7,22.1,18.2,86,81,71,30.20,30.06,19,6,19,0.00
2013-12-18,36.9,28.2,16.5,19.9,16.3,10.5,82,62,40,30.31,30.04,16,5,16,0.00
2013-12-19,50.1,44.4,31.4,42.2,34.5,19.3,78,68,52,30.05,29.90,21,6,21,0.00
2013-12-20,60.2,55.3,48.9,55.8,50.1,42.3,87,83,75,29.90,29.76,22,7,25,0.39
2013-12-21,54.0,42.8,38.4,48.6,38.9,34.3,88,86,82,29.84,29.45,20,4,20,2.46
2013-12-22,45.2,39.3,33.0,42.2,35.3,28.0,89,86,82,30.12,29.38,30,8,30,0.00
2013-12-23,32.9,27.4,18.0,28.0,20.4,9.3,82,75,66,30.48,30.12,22,8,22,0.00
2013-12-24,20.1,14.8,7.7,12.5,6.7,0.2,77,70,61,30.65,30.49,19,5,19,0.00
2013-12-25,31.1,26.1,19.4,24.0,16.6,12.0,75,67,59,30.52,30.22,18,5,19,0.00
2013-12-26,36.6,32.4,25.4,26.5,22.1,18.3,80,66,53,30.42,30.21,26,6,28,0.00
2013-12-27,47.2,37.1,28.6,31.1,27.0,22.0,81,67,53,30.42,30.27,20,5,20,0.00
2013-12-28,54.1,42.7,34.4,33.1,29.8,26.8,81,62,38,30.27,29.99,20,5,20,0.00
2013-12-29,45.5,37.6,28.0,32.4,28.4,22.4,84,70,57,30.12,29.85,23,6,29,0.00
2013-12-30,27.8,22.5,20.1,22.4,13.7,10.2,80,68,60,30.34,30.12,19,4,19,0.00
2013-12-31,32.2,26.3,21.6,19.5,15.2,11.8,72,63,51,30.43,30.24,24,5,24,0.00
2014-1-1,41.3,30.4,20.7,29.2,22.6,15.5,84,73,60,30.31,29.98,14,2,17,0.23
2014-1-2,20.6,16.6,10.5,15.3,10.5,1.6,82,76,66,30.41,29.98,25,7,27,0.01